Time;durP1;ratioP1;P1;durP2;ratioP2;P2;SDS_P1;SDS_P2;PMS_P1;PMS_P2;Temp;Humidity;BMP_temperature;BMP_pressure;BME280_temperature;BME280_humidity;BME280_pressure;Samples;Min_cycle;Max_cycle;Signal;HPM_P1;HPM_P2
2022/12/25 00:02:15;;;;;;;14.73;10.00;;;7.40;99.90;;;;;;5053541;28;20025;-65
2022/12/25 00:04:41;;;;;;;12.48;9.85;;;7.50;99.90;;;;;;5053272;28;20025;-65
2022/12/25 00:07:06;;;;;;;12.95;10.27;;;7.70;99.90;;;;;;5051727;28;20025;-65
2022/12/25 00:09:32;;;;;;;13.05;10.43;;;7.90;99.90;;;;;;5051618;28;20567;-65
2022/12/25 00:11:58;;;;;;;15.68;10.77;;;7.80;99.90;;;;;;5053260;28;20029;-65
2022/12/25 00:14:24;;;;;;;17.13;10.38;;;7.40;99.90;;;;;;5053770;28;20047;-65
2022/12/25 00:16:50;;;;;;;13.95;10.05;;;7.50;99.90;;;;;;5051862;28;20120;-66
2022/12/25 00:19:15;;;;;;;13.35;10.07;;;7.90;99.90;;;;;;5053010;28;20025;-65
2022/12/25 00:21:41;;;;;;;16.40;11.13;;;8.10;99.90;;;;;;5052882;28;20469;-65
2022/12/25 00:24:08;;;;;;;13.85;10.25;;;7.70;99.90;;;;;;5053031;28;20029;-65
2022/12/25 00:26:33;;;;;;;13.95;10.60;;;8.00;99.90;;;;;;5052816;28;20389;-65
2022/12/25 00:28:59;;;;;;;14.43;10.45;;;7.90;99.90;;;;;;5053157;28;20031;-65
2022/12/25 00:31:25;;;;;;;12.10;9.98;;;8.00;99.90;;;;;;5052864;28;20025;-65
2022/12/25 00:33:51;;;;;;;14.68;11.40;;;8.00;99.90;;;;;;5052763;28;20029;-65
2022/12/25 00:36:19;;;;;;;13.68;10.80;;;7.80;99.90;;;;;;5052433;28;20438;-65
2022/12/25 00:38:45;;;;;;;14.32;9.98;;;7.90;99.90;;;;;;5052827;28;20013;-65
2022/12/25 00:41:14;;;;;;;11.48;9.45;;;8.00;99.90;;;;;;5052460;28;20025;-65
2022/12/25 00:43:43;;;;;;;13.25;11.05;;;8.00;99.90;;;;;;5052756;28;20533;-65
2022/12/25 00:46:10;;;;;;;14.23;9.63;;;7.80;99.90;;;;;;5052928;28;20029;-65
2022/12/25 00:48:37;;;;;;;13.77;10.10;;;7.80;99.90;;;;;;5051138;28;20517;-65
2022/12/25 00:51:05;;;;;;;13.82;10.55;;;7.60;99.90;;;;;;5052350;28;20435;-65
2022/12/25 00:53:31;;;;;;;15.20;10.73;;;7.60;99.90;;;;;;5052485;28;20478;-65
2022/12/25 00:55:59;;;;;;;12.40;10.27;;;7.50;99.90;;;;;;5052726;28;20025;-65
2022/12/25 00:58:27;;;;;;;13.70;9.52;;;7.50;99.90;;;;;;5052315;28;20155;-65
2022/12/25 01:00:53;;;;;;;13.60;9.65;;;7.50;99.90;;;;;;5052387;28;20052;-65
2022/12/25 01:03:18;;;;;;;16.27;10.23;;;7.60;99.90;;;;;;5052204;28;20118;-65
2022/12/25 01:05:54;;;;;;;13.70;10.48;;;7.60;99.90;;;;;;5051872;28;20036;-65
2022/12/25 01:08:20;;;;;;;11.65;10.02;;;7.70;99.90;;;;;;5052269;28;20017;-65
2022/12/25 01:10:53;;;;;;;14.77;10.25;;;7.80;99.90;;;;;;5051885;28;20075;-65
2022/12/25 01:13:19;;;;;;;14.23;10.05;;;7.80;99.90;;;;;;5052356;28;20485;-65
2022/12/25 01:15:44;;;;;;;14.00;9.57;;;7.50;99.90;;;;;;5052199;28;20099;-65
2022/12/25 01:18:10;;;;;;;14.88;10.90;;;7.60;99.90;;;;;;5052285;28;20036;-65
2022/12/25 01:20:36;;;;;;;10.68;9.57;;;7.80;99.90;;;;;;5051992;28;20017;-65
2022/12/25 01:23:01;;;;;;;15.35;10.98;;;8.20;99.90;;;;;;5052162;28;20478;-65
2022/12/25 01:25:27;;;;;;;11.65;9.57;;;8.20;99.90;;;;;;5052219;28;20108;-65
2022/12/25 01:27:53;;;;;;;14.23;10.13;;;8.30;99.90;;;;;;5052128;28;20079;-65
2022/12/25 01:30:18;;;;;;;12.82;8.77;;;8.40;99.90;;;;;;5052042;28;20063;-65
2022/12/25 01:32:44;;;;;;;11.63;9.00;;;8.40;99.90;;;;;;5052069;28;20021;-65
2022/12/25 01:35:10;;;;;;;12.00;8.40;;;8.40;99.90;;;;;;5051641;28;20052;-65
2022/12/25 01:37:36;;;;;;;13.57;8.85;;;8.50;99.90;;;;;;5051999;28;20037;-65
2022/12/25 01:40:02;;;;;;;12.50;8.43;;;8.70;99.90;;;;;;5052138;28;20036;-65
2022/12/25 01:42:28;;;;;;;12.82;8.80;;;8.80;99.90;;;;;;5052019;28;20397;-65
2022/12/25 01:45:14;;;;;;;11.05;8.35;;;8.70;99.90;;;;;;5051943;28;20025;-65
2022/12/25 01:47:40;;;;;;;10.75;7.60;;;8.70;99.90;;;;;;5046897;28;20454;-65
2022/12/25 01:50:06;;;;;;;7.97;7.10;;;8.60;99.90;;;;;;5051782;28;20018;-65
2022/12/25 01:52:32;;;;;;;13.55;7.50;;;8.60;99.90;;;;;;5051848;28;20477;-65
2022/12/25 01:55:02;;;;;;;10.65;7.22;;;8.70;99.90;;;;;;5051778;28;20021;-65
2022/12/25 01:57:33;;;;;;;11.82;8.63;;;8.70;99.90;;;;;;5051602;28;20501;-66
2022/12/25 02:00:00;;;;;;;9.85;7.63;;;8.60;99.90;;;;;;5051684;28;20025;-65
2022/12/25 02:02:27;;;;;;;8.85;7.60;;;8.60;99.90;;;;;;5051780;28;20029;-65
2022/12/25 02:05:06;;;;;;;9.38;8.02;;;8.70;99.90;;;;;;5050226;28;20377;-65
2022/12/25 02:07:34;;;;;;;8.82;7.93;;;8.70;99.90;;;;;;5051959;28;20452;-65
2022/12/25 02:10:00;;;;;;;10.20;7.85;;;8.70;99.90;;;;;;5051338;28;20045;-65
2022/12/25 02:12:31;;;;;;;8.13;7.05;;;8.90;99.90;;;;;;5051723;28;20527;-65
2022/12/25 02:15:10;;;;;;;10.48;7.22;;;8.90;99.90;;;;;;5051483;28;20040;-65
2022/12/25 02:17:56;;;;;;;9.60;7.43;;;8.90;99.90;;;;;;5055334;28;20064;-64
2022/12/25 02:20:49;;;;;;;9.98;7.38;;;8.90;99.90;;;;;;5055936;28;20401;-65
2022/12/25 02:23:37;;;;;;;8.73;6.90;;;9.00;99.90;;;;;;5055555;28;20028;-65
2022/12/25 02:26:14;;;;;;;10.00;7.40;;;9.00;99.90;;;;;;5055193;28;20017;-65
2022/12/25 02:28:58;;;;;;;10.73;7.05;;;8.90;99.90;;;;;;5055073;28;20090;-65
2022/12/25 02:31:30;;;;;;;8.77;7.10;;;9.00;99.90;;;;;;5055415;28;20079;-65
2022/12/25 02:34:05;;;;;;;9.20;7.35;;;8.90;99.90;;;;;;5054704;28;20036;-65
2022/12/25 02:37:05;;;;;;;8.10;7.03;;;8.90;99.90;;;;;;5054955;28;20024;-65
2022/12/25 02:39:57;;;;;;;9.57;7.10;;;8.80;99.90;;;;;;5055281;28;20029;-65
2022/12/25 03:08:01;;;;;;;9.85;7.57;;;8.20;99.90;;;;;;5054733;28;20078;-65
2022/12/25 03:13:21;;;;;;;8.35;7.45;;;8.50;99.90;;;;;;5054488;28;20036;-65
2022/12/25 03:18:33;;;;;;;11.63;7.75;;;8.10;99.90;;;;;;5054778;28;20040;-65
2022/12/25 03:26:54;;;;;;;11.82;7.50;;;8.60;99.90;;;;;;5054295;28;20095;-65
2022/12/25 03:32:13;;;;;;;11.40;8.00;;;8.50;99.90;;;;;;5053985;28;20086;-65
2022/12/25 03:38:45;;;;;;;10.50;8.40;;;8.20;99.90;;;;;;5054315;28;20101;-64
2022/12/25 04:36:48;;;;;;;8.23;7.40;;;8.80;99.90;;;;;;5052587;28;20056;-65
2022/12/25 04:39:14;;;;;;;11.02;7.13;;;8.70;99.90;;;;;;5052018;28;20393;-65
2022/12/25 04:41:39;;;;;;;8.65;6.35;;;8.70;99.90;;;;;;5052996;28;20043;-65
2022/12/25 04:44:05;;;;;;;8.18;5.45;;;8.80;99.90;;;;;;5052320;28;20028;-65
2022/12/25 04:46:31;;;;;;;8.35;6.03;;;8.70;99.90;;;;;;5052652;28;20581;-65
2022/12/25 04:48:56;;;;;;;8.48;5.80;;;8.60;99.90;;;;;;5052670;28;20035;-65
2022/12/25 04:51:24;;;;;;;9.32;6.07;;;8.40;99.90;;;;;;5052770;28;20405;-65
2022/12/25 04:53:51;;;;;;;7.55;5.88;;;8.60;99.90;;;;;;5052483;28;20027;-65
2022/12/25 04:56:18;;;;;;;7.65;6.10;;;8.30;99.90;;;;;;5052272;28;20032;-65
2022/12/25 04:58:44;;;;;;;7.22;6.25;;;8.30;99.90;;;;;;5052183;28;20036;-65
2022/12/25 05:01:09;;;;;;;8.20;6.70;;;8.10;99.90;;;;;;5052430;28;20029;-66
2022/12/25 05:03:36;;;;;;;7.82;6.22;;;8.00;99.90;;;;;;5052742;28;20031;-65
2022/12/25 05:06:03;;;;;;;9.55;6.90;;;8.00;99.90;;;;;;5052366;28;20037;-65
2022/12/25 05:08:30;;;;;;;10.30;8.02;;;7.90;99.90;;;;;;5052106;28;20023;-64
2022/12/25 05:10:56;;;;;;;8.70;7.78;;;8.10;99.90;;;;;;5052202;28;20041;-65
2022/12/25 05:13:22;;;;;;;10.32;7.50;;;8.10;99.90;;;;;;5051977;28;20543;-65
2022/12/25 05:15:48;;;;;;;9.50;7.28;;;7.90;99.90;;;;;;5052180;28;20037;-65
2022/12/25 05:18:13;;;;;;;10.18;7.28;;;7.80;99.90;;;;;;5052453;28;20492;-65
2022/12/25 05:20:39;;;;;;;7.50;6.38;;;7.80;99.90;;;;;;5052110;28;20029;-65
2022/12/25 05:23:05;;;;;;;6.97;5.75;;;8.20;99.90;;;;;;5052115;28;20444;-65
2022/12/25 05:25:31;;;;;;;7.38;5.70;;;8.00;99.90;;;;;;5051897;28;20032;-65
2022/12/25 05:27:56;;;;;;;7.60;5.82;;;7.90;99.90;;;;;;5051541;28;20021;-64
2022/12/25 05:30:22;;;;;;;8.15;6.07;;;8.10;99.90;;;;;;5052132;28;20129;-65
2022/12/25 05:32:48;;;;;;;8.35;5.45;;;8.50;99.90;;;;;;5052500;28;20025;-65
2022/12/25 05:35:13;;;;;;;8.75;4.95;;;8.70;99.90;;;;;;5051780;28;20029;-65
2022/12/25 05:37:39;;;;;;;7.13;5.13;;;8.80;99.90;;;;;;5051914;28;20028;-64
2022/12/25 05:40:06;;;;;;;6.80;4.72;;;8.90;99.90;;;;;;5051862;28;20029;-65
2022/12/25 05:42:32;;;;;;;7.13;4.63;;;9.40;99.90;;;;;;5051955;28;20527;-65
2022/12/25 05:44:58;;;;;;;9.18;5.00;;;9.40;99.90;;;;;;5050677;28;20025;-65
2022/12/25 05:47:24;;;;;;;6.80;4.53;;;9.50;99.90;;;;;;5051755;28;20025;-64
2022/12/25 05:49:49;;;;;;;5.45;4.30;;;9.40;99.90;;;;;;5051863;28;20025;-65
2022/12/25 05:52:15;;;;;;;7.88;4.50;;;9.40;99.90;;;;;;5055414;28;20583;-65
2022/12/25 05:54:41;;;;;;;6.13;4.97;;;9.40;99.90;;;;;;5056105;28;20108;-65
2022/12/25 05:57:06;;;;;;;5.65;4.40;;;9.50;99.90;;;;;;5055462;28;20036;-65
2022/12/25 05:59:32;;;;;;;7.00;4.40;;;9.60;99.90;;;;;;5055773;28;20029;-65
2022/12/25 06:01:58;;;;;;;5.78;4.28;;;9.40;99.90;;;;;;5055989;28;20067;-65
2022/12/25 06:04:25;;;;;;;6.57;4.80;;;9.60;99.90;;;;;;5055750;28;20052;-65
2022/12/25 06:06:51;;;;;;;6.18;4.47;;;9.60;99.90;;;;;;5054765;28;20025;-65
2022/12/25 06:09:17;;;;;;;5.47;4.90;;;9.60;99.90;;;;;;5055219;28;20383;-65
2022/12/25 06:11:43;;;;;;;5.38;4.03;;;9.60;99.90;;;;;;5055251;28;20104;-64
2022/12/25 06:14:13;;;;;;;5.32;4.28;;;9.60;99.90;;;;;;5055559;28;20100;-64
2022/12/25 06:16:39;;;;;;;5.30;4.32;;;9.40;99.90;;;;;;5055213;28;20040;-65
2022/12/25 06:19:05;;;;;;;4.85;4.20;;;9.20;99.90;;;;;;5055447;28;20092;-65
2022/12/25 06:21:30;;;;;;;7.75;4.75;;;9.50;99.90;;;;;;5055183;28;20025;-65
2022/12/25 06:23:58;;;;;;;6.50;4.63;;;9.40;99.90;;;;;;5055683;28;20028;-65
2022/12/25 06:26:23;;;;;;;6.47;4.43;;;9.40;99.90;;;;;;5055044;28;20045;-64
2022/12/25 06:28:49;;;;;;;5.43;4.28;;;9.40;99.90;;;;;;5055105;28;20081;-65
2022/12/25 06:31:18;;;;;;;7.03;4.53;;;9.20;99.90;;;;;;5055086;28;20083;-66
2022/12/25 06:33:44;;;;;;;5.45;4.45;;;9.20;99.90;;;;;;5055593;28;20482;-64
2022/12/25 06:36:21;;;;;;;7.20;4.38;;;9.30;99.90;;;;;;5054819;28;20028;-65
2022/12/25 06:38:47;;;;;;;5.75;4.22;;;9.20;99.90;;;;;;5054805;28;20067;-65
2022/12/25 06:41:22;;;;;;;5.35;4.60;;;9.20;99.90;;;;;;5055031;28;20017;-65
2022/12/25 06:43:49;;;;;;;5.93;4.63;;;9.20;99.90;;;;;;5055069;28;20021;-64
2022/12/25 06:46:16;;;;;;;7.22;4.28;;;9.20;99.90;;;;;;5054877;28;20021;-65
2022/12/25 06:48:48;;;;;;;5.82;4.28;;;9.10;99.90;;;;;;5054719;28;20110;-65
2022/12/25 06:51:15;;;;;;;6.45;4.57;;;9.00;99.90;;;;;;5055062;28;20028;-65
2022/12/25 06:53:41;;;;;;;7.43;4.50;;;8.90;99.90;;;;;;5054521;28;20435;-64
2022/12/25 06:56:14;;;;;;;8.27;4.40;;;8.90;99.90;;;;;;5054728;28;20104;-65
2022/12/25 06:58:44;;;;;;;6.53;4.57;;;8.90;99.90;;;;;;5055011;28;20025;-65
2022/12/25 07:01:14;;;;;;;6.55;4.60;;;8.90;99.90;;;;;;5054700;28;20500;-65
2022/12/25 07:03:42;;;;;;;5.32;4.20;;;8.90;99.90;;;;;;5053627;28;20111;-65
2022/12/25 07:06:08;;;;;;;7.28;4.32;;;8.80;99.90;;;;;;5054430;28;20036;-65
2022/12/25 07:08:33;;;;;;;5.93;4.47;;;8.70;99.90;;;;;;5054510;28;20465;-65
2022/12/25 07:10:59;;;;;;;7.85;4.70;;;8.80;99.90;;;;;;5054378;28;20091;-65
2022/12/25 07:13:25;;;;;;;5.22;4.72;;;8.80;99.90;;;;;;5054303;28;20036;-65
2022/12/25 07:15:58;;;;;;;7.00;5.15;;;8.80;99.90;;;;;;5054258;28;20481;-64
2022/12/25 07:18:24;;;;;;;6.30;4.27;;;8.80;99.90;;;;;;5054471;28;20084;-64
2022/12/25 07:20:49;;;;;;;6.80;5.00;;;8.80;99.90;;;;;;5054244;28;20274;-65
2022/12/25 07:23:15;;;;;;;7.13;4.70;;;8.80;99.90;;;;;;5054092;28;20100;-65
2022/12/25 07:25:41;;;;;;;6.10;4.90;;;8.80;99.90;;;;;;5054240;28;20021;-65
2022/12/25 07:28:07;;;;;;;6.68;4.43;;;8.90;99.90;;;;;;5053904;28;20070;-65
2022/12/25 07:30:32;;;;;;;5.97;4.25;;;8.80;99.90;;;;;;5054084;28;20533;-64
2022/12/25 07:32:58;;;;;;;6.80;4.30;;;8.90;99.90;;;;;;5054115;28;20382;-64
2022/12/25 07:35:24;;;;;;;6.95;4.40;;;9.00;99.90;;;;;;5054313;28;20029;-65
2022/12/25 07:37:49;;;;;;;6.35;4.63;;;8.80;99.90;;;;;;5053494;28;20038;-65
2022/12/25 07:40:15;;;;;;;7.60;4.40;;;8.70;99.90;;;;;;5053962;28;20025;-65
2022/12/25 07:42:41;;;;;;;6.85;4.40;;;8.80;99.90;;;;;;5053964;28;20028;-65
2022/12/25 07:45:07;;;;;;;5.72;4.43;;;8.80;99.90;;;;;;5053945;28;20469;-65
2022/12/25 07:47:33;;;;;;;6.60;4.65;;;8.90;99.90;;;;;;5054108;28;20051;-65
2022/12/25 07:49:58;;;;;;;5.65;4.50;;;8.90;99.90;;;;;;5053416;28;20041;-65
2022/12/25 07:52:24;;;;;;;7.68;4.53;;;8.90;99.90;;;;;;5053330;28;20028;-64
2022/12/25 07:54:50;;;;;;;5.78;4.50;;;8.90;99.90;;;;;;5053565;28;20025;-65
2022/12/25 07:57:15;;;;;;;7.50;4.57;;;8.80;99.90;;;;;;5053473;28;20041;-65
2022/12/25 07:59:41;;;;;;;5.35;4.22;;;9.00;99.90;;;;;;5053512;28;20111;-65
2022/12/25 08:02:09;;;;;;;6.05;4.97;;;9.20;99.90;;;;;;5053482;28;20029;-65
2022/12/25 08:04:34;;;;;;;6.53;4.90;;;9.20;99.90;;;;;;5053803;28;20379;-65
2022/12/25 08:07:00;;;;;;;6.65;4.70;;;9.40;99.90;;;;;;5053103;28;20036;-64
2022/12/25 08:09:26;;;;;;;7.50;5.22;;;9.40;99.90;;;;;;5052933;28;20504;-65
2022/12/25 08:11:51;;;;;;;5.78;4.90;;;9.40;99.90;;;;;;5053242;28;20041;-65
2022/12/25 08:14:17;;;;;;;7.05;5.47;;;9.40;99.90;;;;;;5053140;28;20083;-65
2022/12/25 08:16:43;;;;;;;7.55;6.05;;;9.60;99.90;;;;;;5053071;28;20516;-65
2022/12/25 08:19:09;;;;;;;8.02;6.07;;;9.60;99.90;;;;;;5053269;28;20025;-65
2022/12/25 08:21:37;;;;;;;9.90;7.00;;;9.90;99.90;;;;;;5053116;28;20509;-65
2022/12/25 08:24:03;;;;;;;12.60;10.55;;;10.10;99.90;;;;;;5053059;28;20021;-65
2022/12/25 08:26:28;;;;;;;11.35;8.88;;;10.20;99.90;;;;;;5052964;28;20120;-64
2022/12/25 08:28:54;;;;;;;10.60;8.40;;;10.20;99.90;;;;;;5052877;28;20516;-65
2022/12/25 08:31:27;;;;;;;10.40;6.90;;;10.60;99.90;;;;;;5052925;28;20021;-65
2022/12/25 08:33:55;;;;;;;6.18;4.43;;;10.80;99.90;;;;;;5052708;28;20477;-65
2022/12/25 08:36:21;;;;;;;4.60;3.33;;;11.10;99.90;;;;;;5052754;28;20444;-65
2022/12/25 08:38:47;;;;;;;5.10;4.57;;;11.50;99.90;;;;;;5052799;28;20037;-64
2022/12/25 08:41:13;;;;;;;5.72;4.70;;;11.60;99.90;;;;;;5052776;28;20032;-65
2022/12/25 08:43:39;;;;;;;4.10;3.70;;;11.50;99.90;;;;;;5052801;28;20028;-65
2022/12/25 08:46:05;;;;;;;4.75;3.50;;;11.50;99.90;;;;;;5052640;28;20029;-65
2022/12/25 08:48:31;;;;;;;4.25;3.30;;;11.60;99.90;;;;;;5051226;28;20021;-65
2022/12/25 08:50:58;;;;;;;5.18;2.95;;;11.60;99.90;;;;;;5052321;28;20048;-65
2022/12/25 08:53:23;;;;;;;3.53;3.10;;;11.70;99.90;;;;;;5052635;28;20021;-65
2022/12/25 08:55:58;;;;;;;7.18;3.30;;;11.80;99.90;;;;;;5052402;28;20033;-65
2022/12/25 08:58:25;;;;;;;4.70;2.97;;;11.70;99.90;;;;;;5052488;28;20504;-64
2022/12/25 09:00:50;;;;;;;3.80;3.05;;;11.90;99.90;;;;;;5052777;28;20025;-65
2022/12/25 09:03:16;;;;;;;5.65;2.92;;;12.10;99.90;;;;;;5052064;28;20033;-65
2022/12/25 09:05:42;;;;;;;4.30;2.70;;;12.20;99.90;;;;;;5052342;28;20057;-65
2022/12/25 09:08:08;;;;;;;4.43;3.03;;;12.50;99.90;;;;;;5052287;28;20388;-65
2022/12/25 09:10:36;;;;;;;3.30;2.90;;;12.70;99.90;;;;;;5052080;28;20067;-65
2022/12/25 09:13:03;;;;;;;4.65;2.97;;;12.80;99.90;;;;;;5052404;28;20032;-65
2022/12/25 09:15:29;;;;;;;2.85;2.55;;;12.90;99.90;;;;;;5052409;28;20036;-66
2022/12/25 09:17:55;;;;;;;3.35;2.53;;;12.90;99.90;;;;;;5052127;28;20037;-65
2022/12/25 09:20:21;;;;;;;3.53;2.60;;;13.00;99.90;;;;;;5052058;28;20486;-65
2022/12/25 09:22:46;;;;;;;3.92;3.15;;;13.20;99.90;;;;;;5052199;28;20029;-65
2022/12/25 09:25:12;;;;;;;3.80;2.50;;;13.10;99.90;;;;;;5051920;28;20090;-65
2022/12/25 09:27:38;;;;;;;3.20;2.78;;;13.00;99.90;;;;;;5050657;28;20112;-65
2022/12/25 09:30:05;;;;;;;4.60;2.90;;;13.10;99.90;;;;;;5051919;28;20017;-65
2022/12/25 09:32:31;;;;;;;4.00;2.60;;;13.30;99.90;;;;;;5052188;28;20082;-65
2022/12/25 09:34:57;;;;;;;3.25;2.38;;;13.60;99.90;;;;;;5051744;28;20025;-65
2022/12/25 09:37:23;;;;;;;4.70;2.50;;;13.70;99.90;;;;;;5051856;28;20037;-65
2022/12/25 09:39:48;;;;;;;4.57;2.60;;;13.80;99.90;;;;;;5052009;28;20025;-65
2022/12/25 09:42:19;;;;;;;4.28;2.85;;;14.00;99.90;;;;;;5052055;28;20035;-65
2022/12/25 09:45:04;;;;;;;3.13;2.30;;;14.20;99.90;;;;;;5051875;28;20393;-65
2022/12/25 09:47:34;;;;;;;3.10;2.63;;;14.40;99.90;;;;;;5051572;28;20511;-65
2022/12/25 09:50:03;;;;;;;2.95;2.63;;;14.60;99.90;;;;;;5051843;28;20504;-65
2022/12/25 09:52:49;;;;;;;3.67;2.45;;;14.70;99.90;;;;;;5051864;28;20044;-65
2022/12/25 09:55:21;;;;;;;3.53;2.40;;;14.80;99.90;;;;;;5051780;28;20370;-65
2022/12/25 09:57:55;;;;;;;4.55;2.30;;;14.90;99.90;;;;;;5051860;28;20060;-65
2022/12/25 10:00:24;;;;;;;2.45;2.25;;;15.20;99.90;;;;;;5051660;28;20029;-65
2022/12/25 10:03:24;;;;;;;2.88;2.35;;;15.20;99.90;;;;;;5051349;28;20032;-65
2022/12/25 10:06:11;;;;;;;2.42;2.20;;;15.20;99.90;;;;;;5051578;28;20086;-65
2022/12/25 10:08:39;;;;;;;4.07;2.88;;;15.20;99.90;;;;;;5051480;28;20018;-65
2022/12/25 10:11:39;;;;;;;4.20;2.38;;;15.10;99.90;;;;;;5051622;28;20079;-65
2022/12/25 10:14:20;;;;;;;3.95;2.50;;;15.10;99.90;;;;;;5051538;28;20055;-65
2022/12/25 10:17:22;;;;;;;6.22;2.40;;;15.20;99.90;;;;;;5051073;28;20070;-65
2022/12/25 10:20:11;;;;;;;2.88;2.40;;;15.30;99.90;;;;;;5051665;28;20033;-64
2022/12/25 10:22:41;;;;;;;4.32;2.80;;;15.50;99.90;;;;;;5045058;28;20086;-64
2022/12/25 10:25:18;;;;;;;5.20;3.65;;;15.60;99.90;;;;;;5051961;28;20025;-64
2022/12/25 10:27:46;;;;;;;5.13;2.95;;;15.60;99.90;;;;;;5051475;28;20055;-64
2022/12/25 10:30:14;;;;;;;2.83;2.58;;;15.60;99.90;;;;;;5051282;28;20021;-64
2022/12/25 10:32:41;;;;;;;4.22;3.35;;;15.60;99.90;;;;;;5050982;28;20032;-64
2022/12/25 10:35:14;;;;;;;5.75;3.00;;;15.60;99.90;;;;;;5051455;28;20025;-64
2022/12/25 10:37:42;;;;;;;4.90;2.90;;;15.60;99.90;;;;;;5054053;28;20087;-64
2022/12/25 10:40:23;;;;;;;3.38;2.83;;;15.60;99.90;;;;;;5054969;28;20112;-64
2022/12/25 10:42:56;;;;;;;2.53;2.33;;;15.60;99.90;;;;;;5054933;28;20063;-64
2022/12/25 10:45:21;;;;;;;3.97;2.40;;;15.60;99.90;;;;;;5054586;28;20613;-64
2022/12/25 10:47:47;;;;;;;3.13;2.40;;;15.60;99.90;;;;;;5055013;28;20032;-63
2022/12/25 10:50:24;;;;;;;5.13;3.28;;;15.70;99.90;;;;;;5055248;28;20024;-64
2022/12/25 10:53:07;;;;;;;4.28;3.63;;;15.70;99.90;;;;;;5055095;28;20040;-63
2022/12/25 10:55:33;;;;;;;3.53;2.67;;;15.30;99.90;;;;;;5054665;28;20047;-63
2022/12/25 10:58:00;;;;;;;3.85;2.60;;;15.20;99.90;;;;;;5054607;28;20048;-64
2022/12/25 11:00:31;;;;;;;4.90;4.30;;;15.20;99.90;;;;;;5054602;28;20044;-64
2022/12/25 11:02:57;;;;;;;5.72;4.38;;;15.20;99.90;;;;;;5054490;28;20439;-64
2022/12/25 11:05:30;;;;;;;3.85;3.45;;;15.00;99.90;;;;;;5054705;28;20059;-64
2022/12/25 11:07:58;;;;;;;6.72;5.78;;;15.00;99.90;;;;;;5054881;28;20032;-64
2022/12/25 11:10:40;;;;;;;6.65;4.60;;;15.00;99.90;;;;;;5054319;28;20048;-64
2022/12/25 11:13:16;;;;;;;5.63;4.82;;;14.90;99.90;;;;;;5054343;28;20021;-64
2022/12/25 11:15:47;;;;;;;4.05;3.65;;;14.80;99.90;;;;;;5054081;28;20377;-64
2022/12/25 11:18:27;;;;;;;4.32;3.00;;;14.80;99.90;;;;;;5054716;28;20120;-64
2022/12/25 11:20:57;;;;;;;4.68;2.92;;;14.70;99.90;;;;;;5054339;28;20025;-64
2022/12/25 11:23:25;;;;;;;5.68;3.38;;;14.60;99.90;;;;;;5054221;28;20385;-64
2022/12/25 11:25:58;;;;;;;3.42;3.13;;;14.70;99.90;;;;;;5054186;28;20017;-64
2022/12/25 11:28:25;;;;;;;4.07;2.95;;;14.60;99.90;;;;;;5054024;28;20040;-64
2022/12/25 11:30:56;;;;;;;5.20;3.83;;;14.70;99.90;;;;;;5054360;28;20100;-64
2022/12/25 11:33:29;;;;;;;5.47;3.30;;;14.60;99.90;;;;;;5054062;28;20052;-64
2022/12/25 11:35:56;;;;;;;5.28;3.35;;;14.60;99.90;;;;;;5053947;28;20028;-64
2022/12/25 11:38:23;;;;;;;4.82;3.72;;;14.70;99.90;;;;;;5053926;28;20100;-64
2022/12/25 11:40:57;;;;;;;6.00;3.50;;;14.60;99.90;;;;;;5054145;28;20044;-64
2022/12/25 11:43:25;;;;;;;4.38;3.85;;;14.80;99.90;;;;;;5053307;28;20025;-64
2022/12/25 11:46:18;;;;;;;3.70;3.28;;;14.80;99.90;;;;;;5054204;28;20432;-64
2022/12/25 11:48:54;;;;;;;4.97;3.40;;;14.90;99.90;;;;;;5053268;28;20036;-64
2022/12/25 11:51:23;;;;;;;4.43;3.50;;;14.80;99.90;;;;;;5053695;28;20029;-64
2022/12/25 11:54:03;;;;;;;5.65;3.90;;;14.90;99.90;;;;;;5053905;28;20084;-63
2022/12/25 11:56:29;;;;;;;4.75;3.60;;;15.10;99.90;;;;;;5053458;28;20029;-64
2022/12/25 11:59:01;;;;;;;3.65;3.00;;;15.10;99.90;;;;;;5053757;28;20029;-64
2022/12/25 12:01:34;;;;;;;6.10;4.70;;;15.00;99.90;;;;;;5053512;28;20029;-64
2022/12/25 12:04:02;;;;;;;4.03;3.40;;;15.00;99.90;;;;;;5053432;28;20503;-64
2022/12/25 12:06:49;;;;;;;5.88;3.38;;;15.00;99.90;;;;;;5053533;28;20539;-64
2022/12/25 12:09:35;;;;;;;5.50;3.80;;;15.10;99.90;;;;;;5052986;28;20391;-64
2022/12/25 12:12:07;;;;;;;6.32;5.15;;;15.00;99.90;;;;;;5052950;28;20025;-64
2022/12/25 12:14:33;;;;;;;6.32;5.40;;;15.00;99.90;;;;;;5053320;28;20032;-64
2022/12/25 12:16:59;;;;;;;8.05;5.30;;;15.00;99.90;;;;;;5053141;28;20033;-64
2022/12/25 12:19:30;;;;;;;5.57;4.90;;;15.10;99.90;;;;;;5053183;28;20029;-64
2022/12/25 12:22:02;;;;;;;6.55;4.88;;;15.10;99.90;;;;;;5053501;28;20056;-64
2022/12/25 12:24:34;;;;;;;4.70;4.30;;;15.20;99.90;;;;;;5052960;28;20549;-64
2022/12/25 12:27:03;;;;;;;4.30;3.90;;;15.20;99.90;;;;;;5052726;28;20439;-64
2022/12/25 12:29:36;;;;;;;7.85;6.78;;;15.20;99.90;;;;;;5052730;28;20052;-64
2022/12/25 12:32:05;;;;;;;6.00;5.40;;;15.20;99.90;;;;;;5053304;28;20497;-63
2022/12/25 12:34:42;;;;;;;8.70;7.05;;;15.30;99.90;;;;;;5052986;28;20082;-63
2022/12/25 12:37:37;;;;;;;8.60;7.40;;;15.30;99.90;;;;;;5052763;28;20040;-64
2022/12/25 12:40:06;;;;;;;5.57;4.97;;;15.40;99.90;;;;;;5050603;28;20033;-63
2022/12/25 12:42:39;;;;;;;4.95;4.45;;;15.50;99.90;;;;;;5052550;28;20092;-63
2022/12/25 12:45:15;;;;;;;5.75;4.72;;;15.60;99.90;;;;;;5052712;28;20055;-63
2022/12/25 12:47:49;;;;;;;5.65;4.15;;;15.60;99.90;;;;;;5052810;28;20451;-64
2022/12/25 12:50:34;;;;;;;6.53;4.40;;;15.60;99.90;;;;;;5052542;28;20036;-65
2022/12/25 12:53:32;;;;;;;5.72;4.72;;;15.60;99.90;;;;;;5052797;28;20106;-65
2022/12/25 12:56:18;;;;;;;5.85;4.65;;;15.70;99.90;;;;;;5052105;28;20112;-65
2022/12/25 12:58:49;;;;;;;6.45;4.93;;;15.70;99.90;;;;;;5052692;28;20056;-65
2022/12/25 13:01:27;;;;;;;7.65;5.95;;;15.80;99.90;;;;;;5051366;28;20477;-65
2022/12/25 13:04:24;;;;;;;6.32;5.70;;;15.80;99.90;;;;;;5052807;28;20105;-65
2022/12/25 13:07:09;;;;;;;6.40;5.20;;;15.80;99.90;;;;;;5052342;28;20090;-65
2022/12/25 13:09:40;;;;;;;7.53;5.28;;;16.00;99.90;;;;;;5052281;28;20048;-64
2022/12/25 13:12:07;;;;;;;6.05;5.28;;;16.00;99.90;;;;;;5052005;28;20035;-65
2022/12/25 13:14:33;;;;;;;6.05;5.45;;;16.00;99.90;;;;;;5052267;28;20030;-65
2022/12/25 13:16:59;;;;;;;6.90;5.20;;;16.10;99.90;;;;;;5052224;28;20120;-65
2022/12/25 13:19:28;;;;;;;8.57;6.20;;;16.10;99.90;;;;;;5052508;28;20100;-64
2022/12/25 13:22:02;;;;;;;7.40;5.75;;;16.10;99.90;;;;;;5052169;28;20025;-65
2022/12/25 13:24:34;;;;;;;7.30;5.38;;;16.10;99.90;;;;;;5052282;28;20037;-64
2022/12/25 13:27:01;;;;;;;7.13;5.85;;;16.10;99.90;;;;;;5052354;28;20037;-65
2022/12/25 13:29:37;;;;;;;7.10;5.47;;;16.10;99.90;;;;;;5051906;28;20104;-64
2022/12/25 13:32:05;;;;;;;8.38;6.22;;;16.20;99.90;;;;;;5052050;28;20029;-65
2022/12/25 13:34:33;;;;;;;9.00;6.28;;;16.30;99.90;;;;;;5052374;28;20032;-65
2022/12/25 13:37:00;;;;;;;6.47;5.80;;;16.50;99.90;;;;;;5051797;28;20021;-65
2022/12/25 13:39:27;;;;;;;7.35;5.50;;;16.60;99.90;;;;;;5051533;28;20025;-65
2022/12/25 13:42:07;;;;;;;6.88;5.55;;;16.50;99.90;;;;;;5051988;28;20106;-64
2022/12/25 13:44:38;;;;;;;7.57;5.60;;;16.50;99.90;;;;;;5051914;28;20028;-64
2022/12/25 13:47:32;;;;;;;7.20;5.55;;;16.60;99.90;;;;;;5052240;28;20029;-64
2022/12/25 13:50:11;;;;;;;5.90;5.30;;;16.70;99.90;;;;;;5051693;28;20115;-65
2022/12/25 13:52:37;;;;;;;7.25;5.40;;;16.80;99.90;;;;;;5051844;28;20033;-64
2022/12/25 13:55:17;;;;;;;6.63;5.55;;;16.70;99.90;;;;;;5051723;28;20029;-64
2022/12/25 13:57:52;;;;;;;6.70;5.38;;;16.70;99.90;;;;;;5052197;28;20379;-64
2022/12/25 14:00:46;;;;;;;6.15;5.65;;;16.70;99.90;;;;;;5051765;28;20490;-64
2022/12/25 14:03:21;;;;;;;5.50;5.00;;;16.80;99.90;;;;;;5050776;28;20045;-63
2022/12/25 14:06:15;;;;;;;9.25;5.25;;;16.80;99.90;;;;;;5051922;28;20431;-64
2022/12/25 14:08:41;;;;;;;7.15;5.10;;;16.80;99.90;;;;;;5047161;28;20033;-64
2022/12/25 14:11:07;;;;;;;6.03;4.82;;;16.90;99.90;;;;;;5052063;28;20037;-64
2022/12/25 14:13:39;;;;;;;7.55;5.03;;;16.90;99.90;;;;;;5055525;28;20024;-65
2022/12/25 14:16:06;;;;;;;6.22;4.88;;;17.10;99.90;;;;;;5055224;28;20041;-64
2022/12/25 14:18:32;;;;;;;5.50;5.00;;;17.20;99.90;;;;;;5055886;28;20059;-64
2022/12/25 14:21:20;;;;;;;5.88;4.90;;;17.30;99.90;;;;;;5055378;28;20034;-64
2022/12/25 14:23:48;;;;;;;5.28;4.68;;;17.30;99.90;;;;;;5055112;28;20037;-64
2022/12/25 14:26:26;;;;;;;7.40;4.57;;;17.30;99.90;;;;;;5055260;28;20036;-64
2022/12/25 14:29:08;;;;;;;6.53;4.15;;;17.30;99.90;;;;;;5055488;28;20381;-64
2022/12/25 14:31:37;;;;;;;7.65;6.80;;;17.30;99.90;;;;;;5055267;28;20025;-64
2022/12/25 14:34:06;;;;;;;6.57;5.85;;;17.30;99.90;;;;;;5055197;28;20040;-64
2022/12/25 14:36:33;;;;;;;14.80;10.85;;;17.40;99.90;;;;;;5055155;28;20439;-63
2022/12/25 14:39:05;;;;;;;9.55;8.48;;;17.50;99.90;;;;;;5054911;28;20033;-64
2022/12/25 14:41:40;;;;;;;11.02;8.70;;;17.60;99.90;;;;;;5054997;28;20319;-64
2022/12/25 14:44:28;;;;;;;9.90;8.15;;;17.60;99.90;;;;;;5055043;28;20033;-64